createdAt,value
2019-02-26T00:00:59.894Z,-1.40
2019-02-26T00:03:30.870Z,-1.30
2019-02-26T00:05:59.932Z,-1.30
2019-02-26T00:08:34.344Z,-1.30
2019-02-26T00:11:03.760Z,-1.30
2019-02-26T00:13:34.613Z,-1.30
2019-02-26T00:16:12.877Z,-1.20
2019-02-26T00:18:44.881Z,-1.20
2019-02-26T00:21:13.819Z,-1.30
2019-02-26T00:23:46.605Z,-1.20
2019-02-26T00:26:17.745Z,-1.10
2019-02-26T00:28:46.715Z,-1.00
2019-02-26T00:31:15.658Z,-1.00
2019-02-26T00:33:44.650Z,-0.90
2019-02-26T00:36:15.312Z,-0.90
2019-02-26T00:38:44.501Z,-0.80
2019-02-26T00:41:13.366Z,-0.80
2019-02-26T00:43:42.339Z,-0.70
2019-02-26T00:46:11.238Z,-0.80
2019-02-26T00:48:40.688Z,-0.70
2019-02-26T00:51:10.874Z,-0.80
2019-02-26T00:53:39.868Z,-0.80
2019-02-26T00:56:10.263Z,-0.70
2019-02-26T00:58:41.510Z,-0.60
2019-02-26T01:01:12.149Z,-0.60
2019-02-26T01:03:42.471Z,-0.70
2019-02-26T01:06:11.400Z,-0.70
2019-02-26T01:08:42.526Z,-0.70
2019-02-26T01:11:11.111Z,-0.80
2019-02-26T01:13:40.205Z,-0.80
2019-02-26T01:16:09.197Z,-0.80
2019-02-26T01:18:38.085Z,-0.80
2019-02-26T01:21:07.181Z,-0.70
2019-02-26T01:23:36.071Z,-0.70
2019-02-26T01:26:04.959Z,-0.70
2019-02-26T01:28:33.957Z,-0.60
2019-02-26T01:31:04.949Z,-0.50
2019-02-26T01:33:34.344Z,-0.50
2019-02-26T01:36:03.393Z,-0.50
2019-02-26T01:38:32.264Z,-0.50
2019-02-26T01:41:01.135Z,-0.50
2019-02-26T01:43:30.038Z,-0.50
2019-02-26T01:45:58.895Z,-0.60
2019-02-26T01:48:27.758Z,-0.60
2019-02-26T01:50:57.444Z,-0.50
2019-02-26T01:53:27.449Z,-0.50
2019-02-26T01:55:56.344Z,-0.60
2019-02-26T01:58:25.306Z,-0.60
2019-02-26T02:00:55.578Z,-0.50
2019-02-26T02:03:25.500Z,-0.40
2019-02-26T02:05:55.419Z,-0.40
2019-02-26T02:08:24.961Z,-0.30
2019-02-26T02:10:56.531Z,-0.20
2019-02-26T02:13:28.308Z,-0.20
2019-02-26T02:15:55.071Z,-0.20
2019-02-26T02:18:25.928Z,-0.20
2019-02-26T02:20:54.520Z,-0.20
2019-02-26T02:23:24.066Z,-0.20
2019-02-26T02:25:53.911Z,-0.10
2019-02-26T02:28:23.829Z,-0.10
2019-02-26T02:30:53.307Z,-0.10
2019-02-26T02:33:24.276Z,-0.20
2019-02-26T02:35:52.733Z,-0.30
2019-02-26T02:38:21.590Z,-0.40
2019-02-26T02:40:52.735Z,-0.30
2019-02-26T02:43:23.474Z,-0.20
2019-02-26T02:45:53.067Z,-0.20
2019-02-26T02:48:22.046Z,-0.20
2019-02-26T02:50:50.933Z,-0.20
2019-02-26T02:53:21.085Z,-0.20
2019-02-26T02:55:51.623Z,-0.20
2019-02-26T02:58:21.345Z,-0.10
2019-02-26T03:00:52.223Z,-0.10
2019-02-26T03:03:21.671Z,-0.20
2019-02-26T03:05:50.554Z,-0.30
2019-02-26T03:08:22.046Z,-0.20
2019-02-26T03:10:50.015Z,-0.20
2019-02-26T03:13:20.161Z,-0.30
2019-02-26T03:15:50.144Z,-0.40
2019-02-26T03:18:19.948Z,-0.50
2019-02-26T03:20:48.810Z,-0.60
2019-02-26T03:23:20.096Z,-0.60
2019-02-26T03:25:50.508Z,-0.70
2019-02-26T03:28:18.754Z,-0.70
2019-02-26T03:30:47.624Z,-0.70
2019-02-26T03:33:16.486Z,-0.60
2019-02-26T03:35:45.372Z,-0.70
2019-02-26T03:38:15.332Z,-0.70
2019-02-26T03:40:44.762Z,-0.80
2019-02-26T03:43:16.005Z,-0.80
2019-02-26T03:45:47.309Z,-0.80
2019-02-26T03:48:19.309Z,-0.80
2019-02-26T03:50:45.239Z,-0.90
2019-02-26T03:53:14.114Z,-0.90
2019-02-26T03:55:43.951Z,-0.90
2019-02-26T03:58:13.255Z,-1.00
2019-02-26T04:00:43.959Z,-0.90
2019-02-26T04:03:15.260Z,-1.00
2019-02-26T04:05:44.108Z,-0.90
2019-02-26T04:08:12.955Z,-0.90
2019-02-26T04:10:41.807Z,-0.90
2019-02-26T04:13:10.735Z,-0.90
2019-02-26T04:15:39.597Z,-1.00
2019-02-26T04:18:08.463Z,-1.00
2019-02-26T04:20:37.395Z,-1.00
2019-02-26T04:23:08.392Z,-1.10
2019-02-26T04:25:49.546Z,-1.20
2019-02-26T04:28:33.476Z,-1.20
2019-02-26T04:31:24.372Z,-1.30
2019-02-26T04:34:05.369Z,-1.20
2019-02-26T04:36:50.852Z,-1.30
2019-02-26T04:39:25.290Z,-1.30
2019-02-26T04:42:19.733Z,-1.30
2019-02-26T04:45:09.059Z,-1.40
2019-02-26T04:47:51.049Z,-1.50
2019-02-26T04:50:23.013Z,-1.60
2019-02-26T04:52:49.670Z,-1.70
2019-02-26T04:55:18.562Z,-1.60
2019-02-26T04:57:49.090Z,-1.60
2019-02-26T05:00:17.916Z,-1.60
2019-02-26T05:02:46.829Z,-1.60
2019-02-26T05:05:15.690Z,-1.70
2019-02-26T05:07:47.166Z,-1.80
2019-02-26T05:10:15.158Z,-1.90
2019-02-26T05:12:44.006Z,-1.90
2019-02-26T05:15:16.852Z,-1.90
2019-02-26T05:17:43.411Z,-1.90
2019-02-26T05:20:13.476Z,-1.90
2019-02-26T05:22:42.791Z,-1.80
2019-02-26T05:25:14.738Z,-1.80
2019-02-26T05:27:45.052Z,-1.90
2019-02-26T05:30:15.615Z,-1.90
2019-02-26T05:32:43.293Z,-2.00
2019-02-26T05:35:14.162Z,-2.00
2019-02-26T05:37:42.686Z,-2.00
2019-02-26T05:40:13.385Z,-1.90
2019-02-26T05:42:42.209Z,-1.80
2019-02-26T05:45:11.078Z,-1.70
2019-02-26T05:47:39.977Z,-1.70
2019-02-26T05:50:13.514Z,-1.70
2019-02-26T05:52:39.729Z,-1.60
2019-02-26T05:55:08.959Z,-1.50
2019-02-26T05:57:37.842Z,-1.60
2019-02-26T06:00:13.388Z,-1.50
2019-02-26T06:02:42.053Z,-1.40
2019-02-26T06:05:11.666Z,-1.40
2019-02-26T06:07:40.586Z,-1.40
2019-02-26T06:10:09.713Z,-1.50
2019-02-26T06:12:40.886Z,-1.50
2019-02-26T06:15:09.133Z,-1.50
2019-02-26T06:17:40.562Z,-1.40
2019-02-26T06:20:14.440Z,-1.20
2019-02-26T06:22:43.677Z,-1.00
2019-02-26T06:25:17.646Z,-0.80
2019-02-26T06:27:43.251Z,-0.70
2019-02-26T06:30:14.210Z,-0.50
2019-02-26T06:32:44.711Z,-0.50
2019-02-26T06:35:18.555Z,-0.40
2019-02-26T06:37:46.556Z,-0.30
2019-02-26T06:40:16.735Z,-0.20
2019-02-26T06:42:45.587Z,-0.20
2019-02-26T06:45:16.498Z,-0.20
2019-02-26T06:47:47.917Z,-0.10
2019-02-26T06:50:18.924Z,0.00
2019-02-26T06:52:50.620Z,0.10
2019-02-26T06:55:18.807Z,0.20
2019-02-26T06:57:52.179Z,0.30
2019-02-26T07:00:22.329Z,0.20
2019-02-26T07:02:51.799Z,0.20
2019-02-26T07:05:23.900Z,0.40
2019-02-26T07:07:55.102Z,0.50
2019-02-26T07:10:26.727Z,0.60
2019-02-26T07:12:55.637Z,0.80
2019-02-26T07:15:28.692Z,0.80
2019-02-26T07:17:55.138Z,0.90
2019-02-26T07:20:33.657Z,1.30
2019-02-26T07:22:54.556Z,1.60
2019-02-26T07:25:23.430Z,1.80
2019-02-26T07:27:53.621Z,2.10
2019-02-26T07:30:22.845Z,2.60
2019-02-26T07:32:51.800Z,2.70
2019-02-26T07:35:20.670Z,3.00
2019-02-26T07:37:49.533Z,3.90
2019-02-26T07:40:18.792Z,5.10
2019-02-26T07:42:49.193Z,6.30
2019-02-26T07:45:20.367Z,5.90
2019-02-26T07:47:50.844Z,5.30
2019-02-26T07:50:19.343Z,5.90
2019-02-26T07:52:50.310Z,7.40
2019-02-26T07:55:18.701Z,8.80
2019-02-26T07:57:48.921Z,9.00
2019-02-26T08:00:40.354Z,9.00
2019-02-26T08:03:09.412Z,9.30
2019-02-26T08:05:38.274Z,9.20
2019-02-26T08:08:07.137Z,9.00
2019-02-26T08:10:39.377Z,8.90
2019-02-26T08:13:08.011Z,9.00
2019-02-26T08:15:37.514Z,8.90
2019-02-26T08:18:07.196Z,9.60
2019-02-26T08:20:37.621Z,10.20
2019-02-26T08:23:06.748Z,9.90
2019-02-26T08:25:35.643Z,9.40
2019-02-26T08:28:04.535Z,9.40
2019-02-26T08:30:33.361Z,9.10
2019-02-26T08:33:04.820Z,8.90
2019-02-26T08:35:32.882Z,8.90
2019-02-26T08:38:05.655Z,8.70
2019-02-26T08:40:32.313Z,8.60
2019-02-26T08:43:01.165Z,8.30
2019-02-26T08:45:31.084Z,8.30
2019-02-26T08:48:00.251Z,8.70
2019-02-26T08:50:32.982Z,10.00
2019-02-26T08:52:59.602Z,10.90
2019-02-26T08:55:28.631Z,9.70
2019-02-26T08:57:57.453Z,9.30
2019-02-26T09:00:26.316Z,9.40
2019-02-26T09:02:56.642Z,9.60
2019-02-26T09:05:27.879Z,9.70
2019-02-26T09:07:56.302Z,9.70
2019-02-26T09:10:25.219Z,10.10
2019-02-26T09:12:54.083Z,10.80
2019-02-26T09:15:22.954Z,11.70
2019-02-26T09:17:51.869Z,12.70
2019-02-26T09:20:21.602Z,14.30
2019-02-26T09:22:53.059Z,15.20
2019-02-26T09:25:23.445Z,16.70
2019-02-26T09:27:51.571Z,17.40
2019-02-26T09:30:20.728Z,15.80
2019-02-26T09:32:49.647Z,14.10
2019-02-26T09:35:24.652Z,13.80
2019-02-26T09:37:52.280Z,15.90
2019-02-26T09:40:23.443Z,16.30
2019-02-26T09:42:54.563Z,16.20
2019-02-26T09:45:28.619Z,14.90
2019-02-26T09:47:57.159Z,13.90
2019-02-26T09:50:24.958Z,12.60
2019-02-26T09:52:56.583Z,12.00
2019-02-26T09:55:24.387Z,11.70
2019-02-26T09:57:53.250Z,12.20
2019-02-26T10:00:26.101Z,12.90
2019-02-26T10:02:53.557Z,13.20
2019-02-26T10:05:22.412Z,14.50
2019-02-26T10:07:54.204Z,16.00
2019-02-26T10:10:25.380Z,15.80
2019-02-26T10:12:55.887Z,14.70
2019-02-26T10:15:24.135Z,14.70
2019-02-26T10:17:56.215Z,14.50
2019-02-26T10:20:28.577Z,14.00
2019-02-26T10:22:58.627Z,13.40
2019-02-26T10:25:29.380Z,12.70
2019-02-26T10:27:57.358Z,12.50
2019-02-26T10:30:29.989Z,12.10
2019-02-26T10:32:56.792Z,12.20
2019-02-26T10:35:33.166Z,12.30
2019-02-26T10:38:02.830Z,12.50
2019-02-26T10:40:35.290Z,12.40
2019-02-26T10:43:01.035Z,13.00
2019-02-26T10:45:30.893Z,13.20
2019-02-26T10:48:01.718Z,13.90
2019-02-26T10:50:31.992Z,14.30
2019-02-26T10:53:07.169Z,14.20
2019-02-26T10:55:38.417Z,13.80
2019-02-26T10:58:06.778Z,13.50
2019-02-26T11:00:35.290Z,13.10
2019-02-26T11:03:03.386Z,12.60
2019-02-26T11:05:32.265Z,12.40
2019-02-26T11:08:02.971Z,12.20
2019-02-26T11:10:32.025Z,12.20
2019-02-26T11:13:01.006Z,12.20
2019-02-26T11:15:32.926Z,12.40
2019-02-26T11:18:00.434Z,12.50
2019-02-26T11:20:30.832Z,12.40
2019-02-26T11:22:59.886Z,12.50
2019-02-26T11:25:28.833Z,12.50
2019-02-26T11:27:57.684Z,12.40
2019-02-26T11:30:29.464Z,12.50
2019-02-26T11:33:02.223Z,12.80
2019-02-26T11:35:28.322Z,12.80
2019-02-26T11:37:58.131Z,13.00
2019-02-26T11:40:30.478Z,13.30
2019-02-26T11:43:00.174Z,13.40
2019-02-26T11:45:28.717Z,13.80
2019-02-26T11:48:00.402Z,13.90
2019-02-26T11:50:28.531Z,13.90
2019-02-26T11:52:57.896Z,13.70
2019-02-26T11:55:29.181Z,13.70
2019-02-26T11:57:57.313Z,13.90
2019-02-26T12:00:36.232Z,14.20
2019-02-26T12:03:02.460Z,14.10
2019-02-26T12:05:33.579Z,14.00
2019-02-26T12:08:01.927Z,13.60
2019-02-26T12:10:32.419Z,13.30
2019-02-26T12:13:02.244Z,13.30
2019-02-26T12:15:33.451Z,13.20
2019-02-26T12:18:01.826Z,13.30
2019-02-26T12:20:31.372Z,13.10
2019-02-26T12:23:00.301Z,12.80
2019-02-26T12:25:29.109Z,12.80
2019-02-26T12:28:00.020Z,12.50
2019-02-26T12:30:28.558Z,12.60
2019-02-26T12:32:57.423Z,13.00
2019-02-26T12:35:26.298Z,13.30
2019-02-26T12:37:56.658Z,13.60
2019-02-26T12:40:25.698Z,13.80
2019-02-26T12:42:54.545Z,14.00
2019-02-26T12:45:26.127Z,14.10
2019-02-26T12:47:55.418Z,13.90
2019-02-26T12:52:57.029Z,13.30
2019-02-26T12:55:29.613Z,13.20
2019-02-26T12:57:59.476Z,13.30
2019-02-26T13:00:27.873Z,13.50
2019-02-26T13:02:56.885Z,13.50
2019-02-26T13:05:25.699Z,13.40
2019-02-26T13:07:54.614Z,13.40
2019-02-26T13:10:25.163Z,13.40
2019-02-26T13:12:59.314Z,13.40
2019-02-26T13:15:24.581Z,13.50
2019-02-26T13:17:54.679Z,13.40
2019-02-26T13:20:25.000Z,13.30
2019-02-26T13:23:00.533Z,13.20
2019-02-26T13:25:26.756Z,13.20
2019-02-26T13:27:56.015Z,13.30
2019-02-26T13:30:27.065Z,13.30
2019-02-26T13:33:00.504Z,13.40
2019-02-26T13:35:26.479Z,13.60
2019-02-26T13:37:57.802Z,13.60
2019-02-26T13:40:26.668Z,13.50
2019-02-26T13:45:27.054Z,13.60
2019-02-26T13:48:01.038Z,13.60
2019-02-26T13:50:30.878Z,13.70
2019-02-26T13:52:59.728Z,13.90
2019-02-26T13:55:28.561Z,13.90
2019-02-26T13:57:57.468Z,13.70
2019-02-26T14:00:27.099Z,13.60
2019-02-26T14:02:56.124Z,13.50
2019-02-26T14:05:25.001Z,13.60
2019-02-26T14:07:53.849Z,13.40
2019-02-26T14:10:24.692Z,13.50
2019-02-26T14:12:53.828Z,13.70
2019-02-26T14:15:26.317Z,13.80
2019-02-26T14:17:55.150Z,13.70
2019-02-26T14:20:24.098Z,13.70
2019-02-26T14:22:52.936Z,13.80
2019-02-26T14:25:21.800Z,13.80
2019-02-26T14:27:50.706Z,13.80
2019-02-26T14:30:21.828Z,13.70
2019-02-26T14:32:50.674Z,13.70
2019-02-26T14:35:19.697Z,13.70
2019-02-26T14:37:48.568Z,13.80
2019-02-26T14:40:18.901Z,13.90
2019-02-26T14:42:47.932Z,13.90
2019-02-26T14:45:19.730Z,13.90
2019-02-26T14:47:48.693Z,13.90
2019-02-26T14:50:26.262Z,13.90
2019-02-26T14:52:55.080Z,13.70
2019-02-26T14:55:23.943Z,13.60
2019-02-26T14:57:52.830Z,13.50
2019-02-26T15:00:32.468Z,13.40
2019-02-26T15:03:01.318Z,13.30
2019-02-26T15:05:30.323Z,13.10
2019-02-26T15:07:59.143Z,13.00
2019-02-26T15:10:28.049Z,12.90
2019-02-26T15:12:57.203Z,12.90
2019-02-26T15:15:26.065Z,12.90
2019-02-26T15:17:59.758Z,12.90
2019-02-26T15:20:28.614Z,12.90
2019-02-26T15:22:57.471Z,12.90
2019-02-26T15:25:30.858Z,12.80
2019-02-26T15:28:04.912Z,12.80
2019-02-26T15:30:30.220Z,12.70
2019-02-26T15:32:59.122Z,12.60
2019-02-26T15:35:28.166Z,12.40
2019-02-26T15:37:57.014Z,12.30
2019-02-26T15:40:25.924Z,12.30
2019-02-26T15:42:56.388Z,12.20
2019-02-26T15:45:28.981Z,12.20
2019-02-26T15:47:57.955Z,12.20
2019-02-26T15:50:26.830Z,12.20
2019-02-26T15:52:55.790Z,12.20
2019-02-26T15:55:28.960Z,12.10
2019-02-26T15:58:03.000Z,12.10
2019-02-26T16:00:28.842Z,12.00
2019-02-26T16:02:59.310Z,12.00
2019-02-26T16:05:36.668Z,11.90
2019-02-26T16:08:05.999Z,11.80
2019-02-26T16:10:34.834Z,11.80
2019-02-26T16:13:06.156Z,11.70
2019-02-26T16:15:36.354Z,11.60
2019-02-26T16:18:05.302Z,11.60
2019-02-26T16:20:34.146Z,11.60
2019-02-26T16:23:03.059Z,11.50
2019-02-26T16:25:31.891Z,11.40
2019-02-26T16:28:00.731Z,11.40
2019-02-26T16:30:32.052Z,11.30
2019-02-26T16:33:01.178Z,11.20
2019-02-26T16:35:30.053Z,11.10
2019-02-26T16:37:58.955Z,11.00
2019-02-26T16:40:31.252Z,11.00
2019-02-26T16:42:58.291Z,10.90
2019-02-26T16:45:28.299Z,10.90
2019-02-26T16:47:57.516Z,10.80
2019-02-26T16:50:31.426Z,10.80
2019-02-26T16:53:01.180Z,10.70
2019-02-26T16:55:30.399Z,10.70
2019-02-26T16:58:02.312Z,10.70
2019-02-26T17:00:30.712Z,10.60
2019-02-26T17:03:00.727Z,10.60
2019-02-26T17:05:30.085Z,10.70
2019-02-26T17:07:59.306Z,10.70
2019-02-26T17:10:30.399Z,10.80
2019-02-26T17:13:01.676Z,10.60
2019-02-26T17:15:33.519Z,10.50
2019-02-26T17:18:02.376Z,10.30
2019-02-26T17:20:31.247Z,10.20
2019-02-26T17:23:00.149Z,10.20
2019-02-26T17:25:29.172Z,10.20
2019-02-26T17:27:58.075Z,10.00
2019-02-26T17:30:27.066Z,9.80
2019-02-26T17:32:56.132Z,9.70
2019-02-26T17:35:28.777Z,9.60
2019-02-26T17:37:56.429Z,9.50
2019-02-26T17:40:26.899Z,9.30
2019-02-26T17:42:55.749Z,9.10
2019-02-26T17:45:27.470Z,9.10
2019-02-26T17:47:56.930Z,9.10
2019-02-26T17:50:34.773Z,9.20
2019-02-26T17:53:03.625Z,9.20
2019-02-26T17:55:32.478Z,9.30
2019-02-26T17:58:01.622Z,9.30
2019-02-26T18:00:32.060Z,9.20
2019-02-26T18:03:00.906Z,9.20
2019-02-26T18:05:29.789Z,9.00
2019-02-26T18:07:58.638Z,8.90
2019-02-26T18:10:27.797Z,8.80
2019-02-26T18:12:57.002Z,8.60
2019-02-26T18:15:25.865Z,8.50
2019-02-26T18:17:54.706Z,8.40
2019-02-26T18:20:28.099Z,8.40
2019-02-26T18:22:54.513Z,8.30
2019-02-26T18:25:26.624Z,8.20
2019-02-26T18:27:55.535Z,8.20
2019-02-26T18:30:28.669Z,8.10
2019-02-26T18:32:59.052Z,8.10
2019-02-26T18:35:28.402Z,8.10
2019-02-26T18:37:58.058Z,8.10
2019-02-26T18:40:28.303Z,8.00
2019-02-26T18:42:57.456Z,8.00
2019-02-26T18:45:31.264Z,7.90
2019-02-26T18:48:00.118Z,7.80
2019-02-26T18:50:29.628Z,7.60
2019-02-26T18:52:58.750Z,7.60
2019-02-26T18:55:30.215Z,7.50
2019-02-26T18:57:58.541Z,7.30
2019-02-26T19:00:31.611Z,7.20
2019-02-26T19:03:00.461Z,7.20
2019-02-26T19:05:29.586Z,7.20
2019-02-26T19:07:58.554Z,7.10
2019-02-26T19:10:27.416Z,7.10
2019-02-26T19:12:56.319Z,7.10
2019-02-26T19:15:30.064Z,7.10
2019-02-26T19:18:02.259Z,6.90
2019-02-26T19:20:34.385Z,6.80
2019-02-26T19:23:03.239Z,6.80
2019-02-26T19:25:32.066Z,6.70
2019-02-26T19:28:00.972Z,6.70
2019-02-26T19:30:29.916Z,6.70
2019-02-26T19:32:59.828Z,6.70
2019-02-26T19:35:28.763Z,6.60
2019-02-26T19:38:01.965Z,6.60
2019-02-26T19:40:38.722Z,6.50
2019-02-26T19:43:06.838Z,6.50
2019-02-26T19:45:35.691Z,6.50
2019-02-26T19:48:04.583Z,6.50
2019-02-26T19:50:33.465Z,6.40
2019-02-26T19:53:03.087Z,6.30
2019-02-26T19:55:36.590Z,6.20
2019-02-26T19:58:06.855Z,6.10
2019-02-26T20:00:35.937Z,6.10
2019-02-26T20:03:05.479Z,6.10
2019-02-26T20:05:35.054Z,6.10
2019-02-26T20:08:05.337Z,6.10
2019-02-26T20:10:34.458Z,6.00
2019-02-26T20:13:04.134Z,5.90
2019-02-26T20:15:33.363Z,5.80
2019-02-26T20:18:02.284Z,5.80
2019-02-26T20:20:38.164Z,5.80
2019-02-26T20:23:05.217Z,6.00
2019-02-26T20:25:32.343Z,6.50
2019-02-26T20:28:05.286Z,6.40
2019-02-26T20:30:31.657Z,6.20
2019-02-26T20:33:01.535Z,6.00
2019-02-26T20:35:31.159Z,5.80
2019-02-26T20:38:00.123Z,5.70
2019-02-26T20:40:29.027Z,5.60
2019-02-26T20:43:01.367Z,5.50
2019-02-26T20:45:28.331Z,5.50
2019-02-26T20:47:57.545Z,5.50
2019-02-26T20:50:26.394Z,5.50
2019-02-26T20:52:55.381Z,5.50
2019-02-26T20:55:27.494Z,5.50
2019-02-26T20:57:56.325Z,5.40
2019-02-26T21:00:25.981Z,5.40
2019-02-26T21:02:54.971Z,5.40
2019-02-26T21:05:25.057Z,5.40
2019-02-26T21:07:57.879Z,5.40
2019-02-26T21:10:24.683Z,5.40
2019-02-26T21:12:53.539Z,5.30
2019-02-26T21:15:26.040Z,5.30
2019-02-26T21:17:57.690Z,5.30
2019-02-26T21:20:25.457Z,5.40
2019-02-26T21:22:54.908Z,5.40
2019-02-26T21:25:24.784Z,5.40
2019-02-26T21:27:53.672Z,5.40
2019-02-26T21:30:24.385Z,5.40
2019-02-26T21:32:53.288Z,5.40
2019-02-26T21:35:22.230Z,5.40
2019-02-26T21:37:51.059Z,5.30
2019-02-26T21:40:19.978Z,5.30
2019-02-26T21:42:48.847Z,5.20
2019-02-26T21:45:19.031Z,5.20
2019-02-26T21:47:47.959Z,5.10
2019-02-26T21:50:17.126Z,5.10
2019-02-26T21:52:59.101Z,5.00
2019-02-26T21:55:16.874Z,5.20
2019-02-26T21:57:45.801Z,5.30
2019-02-26T22:00:24.364Z,5.40
2019-02-26T22:02:53.942Z,5.40
2019-02-26T22:05:22.853Z,5.40
2019-02-26T22:07:53.038Z,5.50
2019-02-26T22:10:22.395Z,5.50
2019-02-26T22:12:51.280Z,5.40
2019-02-26T22:15:20.212Z,5.30
2019-02-26T22:17:49.077Z,5.20
2019-02-26T22:20:35.211Z,5.20
2019-02-26T22:22:51.918Z,5.20
2019-02-26T22:25:20.814Z,5.20
2019-02-26T22:27:49.683Z,5.20
2019-02-26T22:30:22.139Z,5.30
2019-02-26T22:32:49.892Z,5.20
2019-02-26T22:35:18.916Z,5.30
2019-02-26T22:37:47.790Z,5.30
2019-02-26T22:40:16.646Z,5.20
2019-02-26T22:42:45.533Z,5.20
2019-02-26T22:45:15.561Z,5.20
2019-02-26T22:47:44.616Z,5.20
2019-02-26T22:50:15.838Z,5.20
2019-02-26T22:52:44.761Z,5.30
2019-02-26T22:55:16.482Z,5.40
2019-02-26T22:57:45.622Z,5.50
2019-02-26T23:00:55.911Z,5.50
2019-02-26T23:03:24.784Z,5.60
2019-02-26T23:05:53.627Z,5.80
2019-02-26T23:08:23.089Z,5.90
2019-02-26T23:10:51.959Z,6.00
2019-02-26T23:13:20.907Z,6.10
2019-02-26T23:15:49.810Z,6.10
2019-02-26T23:18:22.223Z,6.30
2019-02-26T23:20:51.181Z,6.40
2019-02-26T23:23:21.888Z,6.50
2019-02-26T23:25:53.693Z,6.70
2019-02-26T23:28:27.554Z,6.80
2019-02-26T23:30:59.624Z,6.90
2019-02-26T23:33:29.576Z,7.00
2019-02-26T23:35:58.583Z,7.00
2019-02-26T23:38:27.429Z,7.00
2019-02-26T23:40:58.131Z,7.10
2019-02-26T23:43:27.621Z,7.30
2019-02-26T23:45:56.998Z,7.40
2019-02-26T23:48:26.457Z,7.30
2019-02-26T23:50:55.772Z,7.20
2019-02-26T23:53:24.603Z,7.20
2019-02-26T23:55:53.470Z,7.10
2019-02-26T23:58:22.389Z,7.00
